Strona główna
METAR-TAF:

METAR-TAF

Lotnisko :

Port lotniczy Kupang-El Tari

Kupang, Indonezja

Szerokość geograficzna: 10-10-17S, Długość geograficzna: 123-40-16E, wysokość: 102 m

Aktualna obserwacja pogody

Raport powstał 47 minut temu, godzina 08:30 UTC
Wiatr 7 kt od południowy wschód
Temperatura 30°C
Wilgotność 52%
Ciśnienie 1009 hPa
Widzialność 10 km lub więcej
Rozproszone chmury na wysokości 1700 ft

METAR: WATT 070830Z 14007KT 9999 SCT017 30/19 Q1009 NOSIG

czas: 16:17 (09:17 UTC)

Prognoza

Raport powstał 4 godziny i 17 minut temu, godzina 05:00 UTC
Prognoza ważna od 07 godzina 06 UTC do 08 godzina 06 UTC
Wiatr 12 kt od południowy wschód
Widzialność: 9000 m
Rozproszone chmury na wysokości 1700 ft

TAF: WATT 070500Z 0706/0806 13012KT 9000 SCT017

Obserwacja i prognoza pogody dla ponad 4000 lotnisk (raport METAR i TAF).

Dostępne stacje oznaczono żółtymi i czerwonymi punktami na mapie.

Najedź kursorem aby zobaczyć nazwę stacji.

Kliknij aby zobaczyć obserwacje i prognozy pogody.

Aby zmienić mapę: kliknij na zielony przycisk z czarnym krzyżykiem, aby powiększyć; na zielony przycisk z myślnikiem, aby pomniejszyć; na zielone strzałki, aby przejść do map sąsiednich.


METAR-TAF: